createdAt,value
2022-09-23T00:01:14.326Z,3.83
2022-09-23T00:03:45.517Z,3.22
2022-09-23T00:06:16.313Z,3.38
2022-09-23T00:08:44.177Z,3.38
2022-09-23T00:11:19.832Z,3.05
2022-09-23T00:13:48.993Z,3.00
2022-09-23T00:16:23.955Z,3.70
2022-09-23T00:18:51.073Z,3.60
2022-09-23T00:21:19.751Z,3.80
2022-09-23T00:23:47.088Z,3.60
2022-09-23T00:26:16.157Z,3.50
2022-09-23T00:28:43.935Z,3.40
2022-09-23T00:31:17.254Z,4.75
2022-09-23T00:33:44.698Z,5.00
2022-09-23T00:36:15.777Z,5.05
2022-09-23T00:38:44.164Z,5.80
2022-09-23T00:41:11.924Z,5.70
2022-09-23T00:43:47.091Z,5.93
2022-09-23T00:46:20.361Z,6.50
2022-09-23T00:48:50.064Z,5.85
2022-09-23T00:51:20.763Z,5.30
2022-09-23T00:53:50.752Z,5.43
2022-09-23T00:56:20.362Z,4.80
2022-09-23T00:58:49.298Z,3.70
2022-09-23T01:01:16.339Z,3.17
2022-09-23T01:03:45.617Z,3.28
2022-09-23T01:06:13.712Z,4.20
2022-09-23T01:08:42.510Z,4.80
2022-09-23T01:11:34.007Z,5.95
2022-09-23T01:14:22.506Z,6.57
2022-09-23T01:17:16.283Z,5.88
2022-09-23T01:20:04.045Z,5.45
2022-09-23T01:22:39.985Z,5.55
2022-09-23T01:25:32.958Z,4.45
2022-09-23T01:28:24.791Z,3.63
2022-09-23T01:31:05.532Z,3.58
2022-09-23T01:33:51.241Z,3.03
2022-09-23T01:36:28.942Z,3.95
2022-09-23T01:38:59.233Z,3.92
2022-09-23T01:41:34.775Z,4.15
2022-09-23T01:44:09.791Z,4.65
2022-09-23T01:46:53.639Z,3.33
2022-09-23T01:49:32.550Z,2.92
2022-09-23T01:52:28.902Z,3.08
2022-09-23T01:55:08.548Z,3.22
2022-09-23T01:57:42.962Z,3.05
2022-09-23T02:00:16.471Z,2.53
2022-09-23T02:02:59.399Z,2.85
2022-09-23T02:05:34.766Z,2.17
2022-09-23T02:08:09.169Z,2.45
2022-09-23T02:10:47.732Z,2.60
2022-09-23T02:13:48.931Z,2.60
2022-09-23T02:16:26.498Z,2.40
2022-09-23T02:19:11.662Z,2.83
2022-09-23T02:21:43.039Z,3.25
2022-09-23T02:24:30.173Z,4.80
2022-09-23T02:27:08.929Z,7.00
2022-09-23T02:29:45.776Z,6.38
2022-09-23T02:32:22.407Z,4.70
2022-09-23T02:35:26.983Z,4.50
2022-09-23T02:38:02.744Z,3.95
2022-09-23T02:40:41.970Z,5.72
2022-09-23T02:43:08.924Z,8.50
2022-09-23T02:45:38.012Z,8.40
2022-09-23T02:48:13.782Z,7.45
2022-09-23T02:50:40.777Z,6.53
2022-09-23T02:53:08.261Z,5.50
2022-09-23T02:55:35.261Z,6.13
2022-09-23T02:58:05.515Z,5.97
2022-09-23T03:01:05.069Z,5.80
2022-09-23T03:03:47.254Z,5.70
2022-09-23T03:06:32.283Z,5.47
2022-09-23T03:09:31.358Z,5.15
2022-09-23T03:12:22.384Z,4.75
2022-09-23T03:14:49.574Z,3.72
2022-09-23T03:17:27.955Z,3.83
2022-09-23T03:20:23.533Z,3.42
2022-09-23T03:22:57.083Z,3.78
2022-09-23T03:25:25.686Z,3.70
2022-09-23T03:27:57.594Z,3.25
2022-09-23T03:30:26.272Z,3.92
2022-09-23T03:32:55.136Z,3.33
2022-09-23T03:35:25.858Z,3.70
2022-09-23T03:37:58.945Z,3.80
2022-09-23T03:40:30.644Z,3.70
2022-09-23T03:42:58.839Z,3.72
2022-09-23T03:45:29.945Z,3.83
2022-09-23T03:47:56.903Z,3.70
2022-09-23T03:50:24.587Z,3.65
2022-09-23T03:52:51.525Z,3.28
2022-09-23T03:55:20.417Z,3.38
2022-09-23T03:57:47.739Z,3.53
2022-09-23T04:00:15.971Z,3.88
2022-09-23T04:02:43.233Z,3.65
2022-09-23T04:05:11.641Z,3.55
2022-09-23T04:07:38.954Z,3.70
2022-09-23T04:10:06.864Z,3.80
2022-09-23T04:12:33.771Z,3.90
2022-09-23T04:15:00.671Z,3.85
2022-09-23T04:17:27.559Z,3.47
2022-09-23T04:19:54.489Z,3.60
2022-09-23T04:22:21.474Z,3.55
2022-09-23T04:24:49.318Z,3.95
2022-09-23T04:27:16.222Z,4.57
2022-09-23T04:29:43.169Z,4.90
2022-09-23T04:32:10.333Z,5.53
2022-09-23T04:34:37.231Z,4.90
2022-09-23T04:37:04.184Z,5.20
2022-09-23T04:39:31.212Z,6.25
2022-09-23T04:41:58.176Z,5.35
2022-09-23T04:44:26.897Z,5.10
2022-09-23T04:46:53.904Z,5.80
2022-09-23T04:49:20.903Z,6.43
2022-09-23T04:51:47.941Z,5.85
2022-09-23T04:54:15.156Z,6.47
2022-09-23T04:56:42.687Z,7.43
2022-09-23T04:59:09.755Z,7.13
2022-09-23T05:01:36.891Z,8.63
2022-09-23T05:04:07.554Z,7.72
2022-09-23T05:06:35.595Z,7.30
2022-09-23T05:09:04.931Z,8.50
2022-09-23T05:11:32.358Z,7.32
2022-09-23T05:13:59.572Z,7.10
2022-09-23T05:16:27.394Z,8.43
2022-09-23T05:18:54.746Z,9.57
2022-09-23T05:21:24.565Z,8.80
2022-09-23T05:23:59.024Z,7.60
2022-09-23T05:26:28.456Z,8.07
2022-09-23T05:28:56.502Z,8.75
2022-09-23T05:31:26.710Z,19.48
2022-09-23T05:33:57.529Z,14.65
2022-09-23T05:36:25.847Z,6.15
2022-09-23T05:38:54.748Z,5.57
2022-09-23T05:41:25.440Z,6.50
2022-09-23T05:43:53.930Z,5.22
2022-09-23T05:46:26.477Z,4.95
2022-09-23T05:48:53.504Z,4.70
2022-09-23T05:51:25.452Z,4.50
2022-09-23T05:53:58.390Z,4.82
2022-09-23T05:56:27.487Z,4.70
2022-09-23T05:58:56.375Z,4.40
2022-09-23T06:01:26.002Z,4.95
2022-09-23T06:03:57.452Z,4.15
2022-09-23T06:06:29.570Z,4.82
2022-09-23T06:08:57.267Z,4.13
2022-09-23T06:11:24.207Z,4.18
2022-09-23T06:13:55.368Z,4.38
2022-09-23T06:16:22.480Z,4.85
2022-09-23T06:18:49.644Z,5.13
2022-09-23T06:21:17.639Z,3.92
2022-09-23T06:23:45.694Z,5.47
2022-09-23T06:26:16.473Z,4.60
2022-09-23T06:28:44.850Z,6.15
2022-09-23T06:31:15.316Z,4.47
2022-09-23T06:33:43.580Z,5.25
2022-09-23T06:36:12.379Z,5.15
2022-09-23T06:38:41.163Z,4.93
2022-09-23T06:41:08.277Z,5.22
2022-09-23T06:43:35.159Z,4.00
2022-09-23T06:46:04.166Z,4.10
2022-09-23T06:48:36.466Z,4.70
2022-09-23T06:51:07.393Z,5.03
2022-09-23T06:53:35.143Z,5.05
2022-09-23T06:56:05.892Z,6.43
2022-09-23T06:58:35.501Z,6.75
2022-09-23T07:01:04.036Z,6.03
2022-09-23T07:03:32.021Z,7.20
2022-09-23T07:05:59.477Z,6.90
2022-09-23T07:08:27.794Z,6.15
2022-09-23T07:10:56.273Z,5.97
2022-09-23T07:13:23.937Z,7.68
2022-09-23T07:15:55.874Z,5.85
2022-09-23T07:18:25.984Z,5.50
2022-09-23T07:20:53.828Z,6.15
2022-09-23T07:23:21.008Z,6.43
2022-09-23T07:25:49.557Z,6.45
2022-09-23T07:28:16.605Z,6.38
2022-09-23T07:30:55.873Z,6.78
2022-09-23T07:33:32.215Z,7.40
2022-09-23T07:36:00.147Z,5.97
2022-09-23T07:38:30.497Z,5.22
2022-09-23T07:41:13.373Z,6.82
2022-09-23T07:43:40.921Z,5.43
2022-09-23T07:46:11.171Z,5.15
2022-09-23T07:48:38.830Z,4.47
2022-09-23T07:51:20.249Z,3.53
2022-09-23T07:53:51.639Z,2.67
2022-09-23T07:56:26.701Z,3.08
2022-09-23T07:59:00.547Z,2.60
2022-09-23T08:01:36.227Z,2.90
2022-09-23T08:04:07.403Z,3.25
2022-09-23T08:06:34.992Z,2.67
2022-09-23T08:09:01.983Z,2.70
2022-09-23T08:11:29.608Z,2.40
2022-09-23T08:13:57.927Z,2.70
2022-09-23T08:16:24.889Z,3.13
2022-09-23T08:18:52.499Z,2.83
2022-09-23T08:21:24.374Z,2.90
2022-09-23T08:23:55.109Z,3.15
2022-09-23T08:26:22.605Z,2.80
2022-09-23T08:28:53.914Z,3.10
2022-09-23T08:31:23.556Z,2.80
2022-09-23T08:34:01.976Z,2.90
2022-09-23T08:36:29.604Z,2.63
2022-09-23T08:38:57.380Z,3.00
2022-09-23T08:41:41.906Z,3.10
2022-09-23T08:44:17.814Z,3.90
2022-09-23T08:46:53.035Z,3.45
2022-09-23T08:49:32.442Z,3.45
2022-09-23T08:52:06.964Z,2.90
2022-09-23T08:54:34.333Z,2.92
2022-09-23T08:57:04.122Z,2.95
2022-09-23T08:59:41.222Z,3.03
2022-09-23T09:02:29.297Z,3.17
2022-09-23T09:05:01.158Z,2.72
2022-09-23T09:07:37.409Z,3.53
2022-09-23T09:10:22.421Z,2.72
2022-09-23T09:13:07.622Z,3.63
2022-09-23T09:15:46.574Z,3.42
2022-09-23T09:18:20.954Z,3.33
2022-09-23T09:21:05.922Z,3.25
2022-09-23T09:23:55.963Z,3.50
2022-09-23T09:26:35.390Z,3.00
2022-09-23T09:32:41.197Z,3.25
2022-09-23T09:35:21.723Z,3.20
2022-09-23T09:37:48.851Z,2.63
2022-09-23T09:40:17.429Z,2.88
2022-09-23T09:42:49.745Z,3.40
2022-09-23T09:45:27.998Z,2.65
2022-09-23T09:48:18.045Z,2.70
2022-09-23T09:50:52.056Z,2.70
2022-09-23T09:53:25.930Z,2.63
2022-09-23T09:56:07.877Z,2.17
2022-09-23T09:58:54.402Z,2.28
2022-09-23T10:01:32.914Z,1.98
2022-09-23T10:04:06.179Z,2.00
2022-09-23T10:06:35.801Z,2.15
2022-09-23T10:09:08.267Z,1.90
2022-09-23T10:14:14.133Z,1.73
2022-09-23T10:16:42.160Z,2.00
2022-09-23T10:19:29.543Z,1.77
2022-09-23T10:22:01.380Z,1.98
2022-09-23T10:24:30.714Z,1.90
2022-09-23T10:27:02.251Z,2.00
2022-09-23T10:29:38.991Z,1.73
2022-09-23T10:32:20.713Z,1.70
2022-09-23T10:34:54.130Z,1.70
2022-09-23T10:37:38.169Z,1.50
2022-09-23T10:40:34.465Z,1.70
2022-09-23T10:43:43.026Z,1.55
2022-09-23T10:46:47.183Z,1.63
2022-09-23T10:49:38.863Z,1.77
2022-09-23T10:52:27.816Z,1.38
2022-09-23T10:55:22.062Z,1.45
2022-09-23T10:58:04.413Z,1.50
2022-09-23T11:00:43.483Z,1.17
2022-09-23T11:03:25.407Z,1.40
2022-09-23T11:05:55.470Z,1.55
2022-09-23T11:08:59.338Z,1.35
2022-09-23T11:11:50.959Z,1.88
2022-09-23T11:14:32.843Z,1.75
2022-09-23T11:17:14.894Z,1.65
2022-09-23T11:19:57.894Z,1.50
2022-09-23T11:25:18.959Z,1.90
2022-09-23T11:28:04.647Z,1.20
2022-09-23T11:30:41.441Z,1.13
2022-09-23T11:33:42.974Z,1.13
2022-09-23T11:36:31.049Z,1.30
2022-09-23T11:39:01.534Z,0.88
2022-09-23T11:41:36.769Z,1.00
2022-09-23T11:44:20.018Z,1.30
2022-09-23T11:47:23.981Z,1.23
2022-09-23T11:50:03.840Z,1.40
2022-09-23T11:52:42.691Z,1.52
2022-09-23T11:55:24.483Z,1.30
2022-09-23T11:58:00.155Z,1.23
2022-09-23T12:00:34.424Z,1.20
2022-09-23T12:03:19.692Z,1.30
2022-09-23T12:06:12.666Z,1.38
2022-09-23T12:08:39.623Z,1.40
2022-09-23T12:11:37.544Z,1.00
2022-09-23T12:14:29.752Z,1.30
2022-09-23T12:17:02.838Z,1.30
2022-09-23T12:19:48.059Z,1.10
2022-09-23T12:22:33.472Z,0.80
2022-09-23T12:25:19.768Z,1.20
2022-09-23T12:27:51.677Z,0.95
2022-09-23T12:30:21.675Z,0.90
2022-09-23T12:32:48.978Z,1.02
2022-09-23T12:35:27.368Z,1.33
2022-09-23T12:37:54.588Z,0.90
2022-09-23T12:40:28.547Z,0.90
2022-09-23T12:42:55.978Z,1.00
2022-09-23T12:45:32.094Z,0.95
2022-09-23T12:48:00.368Z,1.00
2022-09-23T12:50:51.070Z,0.90
2022-09-23T12:53:36.207Z,1.00
2022-09-23T12:56:23.028Z,1.00
2022-09-23T12:58:50.673Z,1.17
2022-09-23T13:01:26.652Z,0.90
2022-09-23T13:04:14.656Z,1.10
2022-09-23T13:06:46.951Z,0.70
2022-09-23T13:09:19.226Z,0.90
2022-09-23T13:11:48.181Z,0.85
2022-09-23T13:14:26.752Z,0.90
2022-09-23T13:16:57.161Z,1.02
2022-09-23T13:19:27.238Z,0.60
2022-09-23T13:21:59.260Z,0.90
2022-09-23T13:24:28.883Z,0.82
2022-09-23T13:27:26.830Z,0.75
2022-09-23T13:30:00.877Z,0.60
2022-09-23T13:32:39.756Z,0.60
2022-09-23T13:35:18.750Z,0.70
2022-09-23T13:37:50.008Z,0.70
2022-09-23T13:40:19.148Z,0.90
2022-09-23T13:43:12.622Z,0.70
2022-09-23T13:45:43.256Z,0.55
2022-09-23T13:48:15.475Z,0.60
2022-09-23T13:50:50.375Z,0.80
2022-09-23T13:53:31.515Z,0.52
2022-09-23T13:56:13.930Z,0.90
2022-09-23T13:58:40.973Z,0.70
2022-09-23T14:01:10.410Z,0.90
2022-09-23T14:03:39.283Z,0.82
2022-09-23T14:06:12.316Z,0.77
2022-09-23T14:08:43.046Z,0.98
2022-09-23T14:11:16.213Z,1.40
2022-09-23T14:13:44.882Z,1.80
2022-09-23T14:16:17.380Z,1.70
2022-09-23T14:18:49.846Z,1.08
2022-09-23T14:21:36.246Z,1.05
2022-09-23T14:24:19.378Z,0.80
2022-09-23T14:27:06.581Z,1.15
2022-09-23T14:29:36.256Z,1.45
2022-09-23T14:32:23.955Z,2.08
2022-09-23T14:35:00.157Z,1.67
2022-09-23T14:37:56.252Z,1.20
2022-09-23T14:40:28.918Z,0.98
2022-09-23T14:45:29.052Z,0.60
2022-09-23T14:48:12.738Z,1.08
2022-09-23T14:51:06.209Z,1.02
2022-09-23T14:53:37.928Z,0.95
2022-09-23T14:56:09.912Z,0.93
2022-09-23T14:58:57.247Z,1.10
2022-09-23T15:01:25.683Z,1.00
2022-09-23T15:03:53.599Z,1.02
2022-09-23T15:06:23.092Z,1.10
2022-09-23T15:08:55.356Z,1.40
2022-09-23T15:11:22.916Z,1.10
2022-09-23T15:13:52.783Z,1.10
2022-09-23T15:16:27.899Z,1.25
2022-09-23T15:18:57.768Z,1.30
2022-09-23T15:21:30.222Z,1.15
2022-09-23T15:23:57.882Z,1.35
2022-09-23T15:26:47.359Z,1.60
2022-09-23T15:29:14.413Z,1.20
2022-09-23T15:31:41.350Z,1.30
2022-09-23T15:34:11.086Z,1.20
2022-09-23T15:36:38.695Z,1.30
2022-09-23T15:39:08.743Z,1.33
2022-09-23T15:41:35.622Z,1.10
2022-09-23T15:44:13.272Z,1.30
2022-09-23T15:46:52.025Z,1.75
2022-09-23T15:49:29.460Z,2.00
2022-09-23T15:51:59.868Z,2.00
2022-09-23T15:54:28.284Z,1.58
2022-09-23T15:56:56.456Z,1.88
2022-09-23T15:59:24.210Z,1.80
2022-09-23T16:01:52.856Z,2.53
2022-09-23T16:04:20.031Z,4.03
2022-09-23T16:06:48.417Z,4.20
2022-09-23T16:09:15.827Z,5.00
2022-09-23T16:11:48.043Z,5.07
2022-09-23T16:14:17.138Z,5.40
2022-09-23T16:16:45.346Z,4.60
2022-09-23T16:19:12.658Z,3.80
2022-09-23T16:21:44.804Z,3.40
2022-09-23T16:24:17.413Z,3.28
2022-09-23T16:26:46.857Z,2.78
2022-09-23T16:29:14.887Z,2.92
2022-09-23T16:31:42.530Z,2.50
2022-09-23T16:34:09.693Z,2.65
2022-09-23T16:36:41.629Z,2.35
2022-09-23T16:39:12.537Z,2.77
2022-09-23T16:41:40.132Z,3.45
2022-09-23T16:44:09.422Z,3.35
2022-09-23T16:46:36.491Z,3.50
2022-09-23T16:49:03.909Z,3.00
2022-09-23T16:51:42.373Z,2.90
2022-09-23T16:54:13.275Z,4.10
2022-09-23T16:56:46.458Z,4.72
2022-09-23T16:59:15.176Z,5.90
2022-09-23T17:02:01.486Z,8.45
2022-09-23T17:04:28.712Z,10.02
2022-09-23T17:06:56.570Z,8.75
2022-09-23T17:09:26.484Z,8.82
2022-09-23T17:12:04.861Z,8.05
2022-09-23T17:14:32.070Z,8.07
2022-09-23T17:16:59.157Z,7.97
2022-09-23T17:19:26.127Z,7.85
2022-09-23T17:21:53.692Z,8.02
2022-09-23T17:24:20.612Z,9.10
2022-09-23T17:26:52.634Z,9.68
2022-09-23T17:29:20.168Z,8.65
2022-09-23T17:31:47.175Z,7.88
2022-09-23T17:34:14.163Z,8.50
2022-09-23T17:36:41.072Z,8.48
2022-09-23T17:39:08.185Z,9.23
2022-09-23T17:41:35.163Z,9.82
2022-09-23T17:44:02.332Z,8.73
2022-09-23T17:46:31.102Z,8.77
2022-09-23T17:48:58.404Z,9.02
2022-09-23T17:51:25.690Z,9.00
2022-09-23T17:53:52.845Z,9.15
2022-09-23T17:56:31.455Z,9.50
2022-09-23T17:59:02.155Z,9.50
2022-09-23T18:01:29.893Z,9.13
2022-09-23T18:03:59.605Z,9.30
2022-09-23T18:06:28.978Z,9.38
2022-09-23T18:08:56.528Z,9.32
2022-09-23T18:11:28.163Z,8.70
2022-09-23T18:14:02.098Z,8.82
2022-09-23T18:16:36.824Z,10.40
2022-09-23T18:19:05.002Z,9.52
2022-09-23T18:21:34.223Z,10.23
2022-09-23T18:26:52.938Z,9.23
2022-09-23T18:29:20.061Z,9.00
2022-09-23T18:31:49.285Z,8.85
2022-09-23T18:34:17.170Z,8.70
2022-09-23T18:36:44.916Z,9.35
2022-09-23T18:39:12.355Z,8.77
2022-09-23T18:41:39.588Z,9.50
2022-09-23T18:44:06.659Z,10.15
2022-09-23T18:46:33.629Z,11.52
2022-09-23T18:49:19.364Z,9.60
2022-09-23T18:51:57.117Z,9.73
2022-09-23T18:54:27.418Z,11.10
2022-09-23T18:56:55.102Z,9.70
2022-09-23T18:59:28.059Z,8.75
2022-09-23T19:01:55.846Z,8.38
2022-09-23T19:04:25.088Z,8.45
2022-09-23T19:06:53.716Z,9.07
2022-09-23T19:09:20.844Z,8.65
2022-09-23T19:11:52.383Z,7.88
2022-09-23T19:14:19.618Z,18.20
2022-09-23T19:16:49.056Z,8.05
2022-09-23T19:19:16.139Z,9.45
2022-09-23T19:21:43.278Z,7.10
2022-09-23T19:24:15.867Z,6.68
2022-09-23T19:26:43.738Z,6.60
2022-09-23T19:29:16.158Z,6.75
2022-09-23T19:31:44.029Z,8.02
2022-09-23T19:34:16.512Z,7.47
2022-09-23T19:36:45.066Z,6.93
2022-09-23T19:39:22.276Z,6.57
2022-09-23T19:41:50.546Z,7.13
2022-09-23T19:44:19.951Z,6.78
2022-09-23T19:46:55.116Z,6.45
2022-09-23T19:49:24.806Z,6.45
2022-09-23T19:51:52.266Z,6.57
2022-09-23T19:54:20.932Z,6.60
2022-09-23T19:56:51.867Z,6.90
2022-09-23T19:59:19.492Z,6.30
2022-09-23T20:01:50.007Z,7.32
2022-09-23T20:04:17.348Z,6.68
2022-09-23T20:06:46.012Z,22.35
2022-09-23T20:09:13.138Z,8.63
2022-09-23T20:11:42.908Z,8.82
2022-09-23T20:14:11.971Z,7.07
2022-09-23T20:16:38.966Z,6.78
2022-09-23T20:19:06.288Z,6.03
2022-09-23T20:21:34.512Z,7.45
2022-09-23T20:24:05.254Z,6.95
2022-09-23T20:26:51.366Z,6.18
2022-09-23T20:29:18.431Z,7.03
2022-09-23T20:31:45.372Z,6.13
2022-09-23T20:34:12.709Z,5.78
2022-09-23T20:36:41.464Z,5.90
2022-09-23T20:39:10.250Z,5.95
2022-09-23T20:41:39.219Z,6.53
2022-09-23T20:44:09.768Z,7.03
2022-09-23T20:46:36.884Z,9.15
2022-09-23T20:49:04.652Z,9.85
2022-09-23T20:51:35.337Z,10.00
2022-09-23T20:54:02.540Z,7.88
2022-09-23T20:56:30.020Z,8.25
2022-09-23T20:59:04.292Z,9.93
2022-09-23T21:01:37.128Z,11.50
2022-09-23T21:04:06.080Z,7.38
2022-09-23T21:06:37.826Z,6.45
2022-09-23T21:09:06.622Z,6.75
2022-09-23T21:11:34.003Z,7.00
2022-09-23T21:14:02.158Z,6.57
2022-09-23T21:16:29.729Z,6.45
2022-09-23T21:18:57.724Z,5.90
2022-09-23T21:21:24.875Z,7.22
2022-09-23T21:23:52.279Z,6.63
2022-09-23T21:26:21.596Z,7.13
2022-09-23T21:28:50.672Z,7.43
2022-09-23T21:31:23.838Z,6.47
2022-09-23T21:34:02.655Z,8.52
2022-09-23T21:36:34.731Z,7.78
2022-09-23T21:39:03.096Z,7.65
2022-09-23T21:41:30.454Z,7.38
2022-09-23T21:43:57.834Z,8.13
2022-09-23T21:46:25.540Z,7.38
2022-09-23T21:48:54.026Z,13.80
2022-09-23T21:51:25.595Z,5.50
2022-09-23T21:53:54.716Z,6.18
2022-09-23T21:56:27.222Z,6.43
2022-09-23T21:58:55.268Z,6.55
2022-09-23T22:01:30.943Z,10.55
2022-09-23T22:04:03.945Z,6.43
2022-09-23T22:06:31.773Z,5.95
2022-09-23T22:09:01.324Z,4.85
2022-09-23T22:12:05.186Z,6.45
2022-09-23T22:17:01.463Z,8.52
2022-09-23T22:19:35.218Z,8.68
2022-09-23T22:22:07.870Z,5.97
2022-09-23T22:24:34.753Z,4.23
2022-09-23T22:27:01.652Z,5.18
2022-09-23T22:29:46.932Z,9.23
2022-09-23T22:32:32.199Z,7.20
2022-09-23T22:34:59.109Z,6.07
2022-09-23T22:37:28.813Z,5.65
2022-09-23T22:39:56.068Z,6.70
2022-09-23T22:42:23.044Z,5.80
2022-09-23T22:44:51.089Z,4.78
2022-09-23T22:47:19.686Z,4.65
2022-09-23T22:49:47.598Z,4.32
2022-09-23T22:52:21.150Z,4.80
2022-09-23T22:54:48.242Z,4.28
2022-09-23T22:57:15.299Z,5.88
2022-09-23T22:59:48.090Z,6.00
2022-09-23T23:02:20.866Z,5.43
2022-09-23T23:04:48.166Z,5.43
2022-09-23T23:07:21.164Z,6.70
2022-09-23T23:12:18.979Z,6.78
2022-09-23T23:14:46.486Z,6.40
2022-09-23T23:17:13.624Z,6.53
2022-09-23T23:19:40.530Z,6.65
2022-09-23T23:22:07.498Z,9.10
2022-09-23T23:24:34.411Z,8.95
2022-09-23T23:27:01.324Z,9.07
2022-09-23T23:29:28.272Z,9.55
2022-09-23T23:31:55.281Z,8.38
2022-09-23T23:34:22.402Z,9.32
2022-09-23T23:41:20.599Z,7.45
2022-09-23T23:44:00.194Z,7.72
2022-09-23T23:46:38.255Z,9.43
2022-09-23T23:49:26.742Z,8.23
2022-09-23T23:52:00.620Z,6.97
2022-09-23T23:54:27.583Z,5.50
2022-09-23T23:57:35.978Z,8.60
